createdAt,value
2023-02-22T00:01:51.105Z,89.88
2023-02-22T00:04:21.548Z,91.97
2023-02-22T00:06:49.807Z,83.50
2023-02-22T00:09:20.655Z,84.93
2023-02-22T00:11:48.873Z,88.60
2023-02-22T00:14:20.198Z,79.90
2023-02-22T00:16:47.420Z,87.15
2023-02-22T00:19:14.294Z,91.07
2023-02-22T00:21:41.216Z,82.75
2023-02-22T00:24:23.144Z,85.45
2023-02-22T00:26:57.994Z,86.82
2023-02-22T00:29:26.005Z,89.65
2023-02-22T00:31:54.013Z,90.00
2023-02-22T00:34:21.090Z,81.72
2023-02-22T00:36:48.956Z,80.65
2023-02-22T00:39:16.096Z,79.90
2023-02-22T00:41:43.329Z,80.65
2023-02-22T00:44:10.706Z,84.13
2023-02-22T00:46:39.341Z,77.53
2023-02-22T00:49:06.434Z,78.00
2023-02-22T00:51:34.002Z,76.30
2023-02-22T00:54:01.414Z,79.88
2023-02-22T00:56:28.666Z,79.90
2023-02-22T00:58:55.901Z,81.20
2023-02-22T01:01:24.140Z,76.13
2023-02-22T01:03:51.399Z,81.05
2023-02-22T01:06:18.995Z,81.50
2023-02-22T01:08:46.815Z,84.00
2023-02-22T01:11:15.737Z,77.93
2023-02-22T01:13:45.281Z,79.32
2023-02-22T01:16:12.245Z,85.30
2023-02-22T01:18:39.392Z,81.57
2023-02-22T01:21:06.637Z,80.85
2023-02-22T01:23:33.636Z,79.05
2023-02-22T01:26:00.471Z,81.82
2023-02-22T01:28:29.931Z,77.75
2023-02-22T01:30:57.021Z,85.00
2023-02-22T01:33:25.481Z,81.80
2023-02-22T01:35:53.043Z,75.80
2023-02-22T01:38:19.998Z,74.03
2023-02-22T01:40:49.567Z,83.60
2023-02-22T01:43:29.838Z,80.13
2023-02-22T01:46:05.381Z,79.22
2023-02-22T01:48:50.878Z,81.55
2023-02-22T01:51:19.679Z,85.63
2023-02-22T01:53:53.454Z,87.63
2023-02-22T01:56:22.172Z,83.30
2023-02-22T01:59:06.760Z,87.13
2023-02-22T02:01:36.220Z,86.35
2023-02-22T02:04:10.731Z,82.30
2023-02-22T02:06:38.610Z,80.95
2023-02-22T02:09:31.095Z,77.50
2023-02-22T02:12:05.058Z,83.22
2023-02-22T02:14:32.849Z,76.43
2023-02-22T02:20:07.404Z,77.55
2023-02-22T02:22:46.606Z,77.15
2023-02-22T02:25:51.771Z,80.82
2023-02-22T02:28:40.327Z,75.75
2023-02-22T02:31:38.088Z,82.47
2023-02-22T02:34:33.446Z,74.95
2023-02-22T02:37:12.305Z,77.97
2023-02-22T02:39:57.431Z,78.77
2023-02-22T02:42:33.143Z,75.55
2023-02-22T02:45:21.691Z,78.43
2023-02-22T02:47:56.930Z,84.90
2023-02-22T02:50:28.028Z,76.55
2023-02-22T02:52:59.522Z,80.50
2023-02-22T02:55:29.878Z,76.93
2023-02-22T02:57:56.803Z,79.05
2023-02-22T03:00:28.928Z,79.88
2023-02-22T03:03:14.958Z,80.28
2023-02-22T03:06:03.646Z,78.03
2023-02-22T03:08:50.711Z,77.13
2023-02-22T03:11:25.102Z,76.22
2023-02-22T03:14:07.366Z,76.25
2023-02-22T03:16:43.743Z,77.85
2023-02-22T03:19:35.822Z,75.00
2023-02-22T03:22:15.893Z,71.15
2023-02-22T03:24:53.766Z,75.70
2023-02-22T03:27:44.857Z,73.03
2023-02-22T03:30:26.023Z,79.20
2023-02-22T03:33:09.081Z,77.32
2023-02-22T03:35:48.850Z,76.20
2023-02-22T03:38:19.160Z,70.53
2023-02-22T03:40:54.364Z,78.03
2023-02-22T03:43:29.662Z,71.82
2023-02-22T03:46:03.710Z,76.85
2023-02-22T03:48:54.164Z,72.85
2023-02-22T03:51:22.495Z,76.85
2023-02-22T03:53:53.676Z,75.82
2023-02-22T03:56:35.908Z,77.93
2023-02-22T03:59:06.432Z,73.30
2023-02-22T04:01:34.097Z,75.85
2023-02-22T04:04:01.712Z,72.18
2023-02-22T04:06:29.588Z,73.43
2023-02-22T04:08:57.185Z,78.15
2023-02-22T04:11:24.072Z,76.63
2023-02-22T04:13:50.934Z,78.95
2023-02-22T04:16:18.650Z,75.68
2023-02-22T04:18:45.545Z,72.97
2023-02-22T04:21:15.077Z,70.97
2023-02-22T04:23:46.524Z,73.20
2023-02-22T04:26:13.955Z,70.80
2023-02-22T04:28:40.812Z,71.25
2023-02-22T04:31:12.590Z,73.03
2023-02-22T04:33:40.329Z,73.05
2023-02-22T04:36:09.315Z,73.63
2023-02-22T04:38:37.102Z,69.05
2023-02-22T04:41:03.972Z,79.28
2023-02-22T04:43:31.382Z,72.47
2023-02-22T04:46:05.979Z,74.25
2023-02-22T04:48:32.855Z,76.10
2023-02-22T04:50:59.767Z,73.60
2023-02-22T04:53:29.285Z,80.28
2023-02-22T04:55:56.745Z,73.03
2023-02-22T04:58:23.805Z,74.75
2023-02-22T05:00:50.855Z,78.40
2023-02-22T05:03:17.770Z,76.35
2023-02-22T05:05:44.718Z,80.90
2023-02-22T05:08:11.612Z,81.82
2023-02-22T05:10:38.451Z,78.57
2023-02-22T05:13:06.144Z,80.25
2023-02-22T05:15:33.420Z,109.47
2023-02-22T05:18:00.322Z,128.02
2023-02-22T05:20:33.867Z,131.27
2023-02-22T05:23:02.657Z,107.32
2023-02-22T05:25:29.633Z,85.97
2023-02-22T05:27:58.858Z,80.68
2023-02-22T05:30:32.190Z,71.93
2023-02-22T05:32:59.766Z,71.68
2023-02-22T05:35:27.696Z,73.43
2023-02-22T05:37:55.275Z,76.22
2023-02-22T05:40:25.180Z,75.18
2023-02-22T05:42:53.395Z,72.15
2023-02-22T05:45:22.839Z,76.50
2023-02-22T05:47:50.102Z,75.78
2023-02-22T05:50:17.886Z,78.07
2023-02-22T05:52:44.711Z,74.70
2023-02-22T05:55:14.263Z,75.95
2023-02-22T05:57:41.176Z,66.97
2023-02-22T06:00:09.533Z,73.35
2023-02-22T06:02:42.710Z,76.80
2023-02-22T06:05:09.731Z,71.25
2023-02-22T06:07:36.521Z,75.18
2023-02-22T06:10:03.663Z,73.78
2023-02-22T06:12:30.506Z,69.47
2023-02-22T06:14:57.600Z,74.55
2023-02-22T06:17:24.398Z,70.65
2023-02-22T06:19:51.521Z,72.95
2023-02-22T06:22:19.851Z,72.15
2023-02-22T06:24:46.709Z,73.75
2023-02-22T06:27:13.843Z,72.78
2023-02-22T06:29:45.642Z,70.43
2023-02-22T06:32:13.250Z,76.68
2023-02-22T06:34:41.041Z,74.65
2023-02-22T06:37:08.653Z,75.35
2023-02-22T06:39:35.487Z,71.25
2023-02-22T06:42:02.462Z,81.68
2023-02-22T06:44:29.328Z,83.60
2023-02-22T06:46:56.387Z,82.45
2023-02-22T06:49:23.650Z,77.88
2023-02-22T06:51:50.536Z,82.85
2023-02-22T06:54:17.358Z,82.00
2023-02-22T06:56:44.385Z,76.43
2023-02-22T06:59:11.263Z,76.45
2023-02-22T07:01:41.527Z,73.20
2023-02-22T07:04:08.578Z,73.30
2023-02-22T07:06:36.354Z,73.18
2023-02-22T07:09:04.004Z,69.30
2023-02-22T07:11:30.852Z,80.32
2023-02-22T07:13:57.709Z,72.40
2023-02-22T07:16:24.580Z,76.95
2023-02-22T07:18:51.583Z,73.82
2023-02-22T07:21:19.174Z,72.38
2023-02-22T07:23:52.110Z,77.35
2023-02-22T07:26:19.404Z,76.82
2023-02-22T07:28:46.259Z,72.93
2023-02-22T07:31:13.430Z,75.57
2023-02-22T07:33:40.290Z,72.95
2023-02-22T07:36:07.345Z,72.18
2023-02-22T07:38:34.167Z,73.90
2023-02-22T07:41:01.693Z,74.05
2023-02-22T07:43:29.250Z,81.70
2023-02-22T07:46:00.399Z,78.90
2023-02-22T07:48:29.990Z,78.13
2023-02-22T07:50:57.906Z,76.80
2023-02-22T07:53:30.839Z,79.70
2023-02-22T07:55:58.275Z,74.20
2023-02-22T07:58:27.049Z,81.85
2023-02-22T08:00:54.671Z,79.53
2023-02-22T08:03:24.862Z,76.88
2023-02-22T08:05:57.898Z,71.75
2023-02-22T08:08:24.978Z,70.38
2023-02-22T08:10:52.482Z,78.20
2023-02-22T08:13:20.891Z,75.68
2023-02-22T08:15:47.982Z,73.47
2023-02-22T08:18:17.233Z,74.22
2023-02-22T08:20:45.965Z,72.07
2023-02-22T08:23:14.570Z,74.87
2023-02-22T08:25:41.621Z,72.15
2023-02-22T08:28:15.384Z,74.63
2023-02-22T08:30:43.749Z,71.35
2023-02-22T08:33:14.444Z,71.00
2023-02-22T08:35:41.839Z,75.72
2023-02-22T08:38:16.919Z,75.40
2023-02-22T08:40:43.807Z,68.20
2023-02-22T08:43:13.431Z,70.60
2023-02-22T08:45:41.068Z,72.38
2023-02-22T08:48:08.019Z,72.57
2023-02-22T08:50:35.564Z,72.72
2023-02-22T08:53:04.268Z,73.63
2023-02-22T08:55:34.029Z,70.28
2023-02-22T09:00:33.007Z,70.75
2023-02-22T09:03:05.660Z,74.20
2023-02-22T09:05:32.636Z,77.70
2023-02-22T09:08:00.542Z,74.32
2023-02-22T09:10:30.293Z,69.68
2023-02-22T09:15:25.482Z,71.75
2023-02-22T09:17:53.776Z,81.30
2023-02-22T09:20:22.541Z,79.80
2023-02-22T09:22:49.900Z,74.22
2023-02-22T09:25:18.020Z,78.05
2023-02-22T09:27:48.008Z,74.70
2023-02-22T09:30:35.151Z,71.38
2023-02-22T09:33:05.712Z,75.90
2023-02-22T09:35:36.155Z,75.70
2023-02-22T09:38:06.298Z,97.78
2023-02-22T09:40:40.937Z,111.15
2023-02-22T09:43:27.033Z,100.65
2023-02-22T09:46:05.890Z,89.20
2023-02-22T09:48:59.573Z,72.33
2023-02-22T09:51:43.344Z,70.35
2023-02-22T09:54:26.074Z,79.90
2023-02-22T09:56:58.358Z,64.90
2023-02-22T09:59:39.290Z,67.35
2023-02-22T10:02:24.587Z,72.90
2023-02-22T10:05:08.600Z,66.45
2023-02-22T10:07:55.144Z,62.47
2023-02-22T10:10:24.482Z,66.88
2023-02-22T10:13:17.325Z,67.28
2023-02-22T10:15:55.766Z,67.53
2023-02-22T10:18:42.485Z,68.53
2023-02-22T10:21:31.358Z,71.97
2023-02-22T10:24:16.262Z,66.33
2023-02-22T10:26:45.103Z,67.07
2023-02-22T10:29:18.961Z,64.20
2023-02-22T10:31:52.239Z,65.85
2023-02-22T10:34:26.061Z,67.22
2023-02-22T10:37:17.402Z,64.00
2023-02-22T10:39:46.647Z,67.50
2023-02-22T10:42:13.578Z,69.95
2023-02-22T10:44:41.672Z,62.70
2023-02-22T10:47:20.014Z,62.25
2023-02-22T10:49:52.102Z,62.40
2023-02-22T10:52:34.054Z,63.42
2023-02-22T10:55:14.611Z,62.35
2023-02-22T10:57:47.289Z,65.35
2023-02-22T11:00:29.326Z,66.75
2023-02-22T11:03:02.192Z,64.32
2023-02-22T11:05:36.670Z,58.00
2023-02-22T11:08:15.735Z,60.28
2023-02-22T11:10:43.549Z,63.28
2023-02-22T11:13:28.486Z,60.90
2023-02-22T11:15:58.923Z,61.60
2023-02-22T11:18:33.011Z,63.00
2023-02-22T11:21:10.062Z,58.17
2023-02-22T11:23:39.105Z,60.15
2023-02-22T11:26:14.343Z,62.20
2023-02-22T11:28:49.772Z,60.28
2023-02-22T11:31:27.077Z,60.65
2023-02-22T11:33:59.525Z,60.92
2023-02-22T11:36:52.752Z,53.83
2023-02-22T11:39:29.733Z,57.33
2023-02-22T11:41:57.943Z,60.05
2023-02-22T11:44:27.602Z,61.58
2023-02-22T11:49:34.229Z,56.08
2023-02-22T11:52:30.062Z,58.47
2023-02-22T11:55:06.062Z,52.60
2023-02-22T11:57:55.687Z,58.00
2023-02-22T12:00:43.400Z,58.65
2023-02-22T12:03:37.926Z,55.55
2023-02-22T12:06:19.455Z,51.67
2023-02-22T12:09:14.101Z,54.90
2023-02-22T12:11:55.215Z,58.17
2023-02-22T12:14:25.567Z,52.38
2023-02-22T12:17:21.376Z,51.13
2023-02-22T12:19:52.496Z,55.13
2023-02-22T12:22:39.389Z,51.95
2023-02-22T12:25:21.485Z,57.78
2023-02-22T12:27:57.077Z,54.30
2023-02-22T12:30:38.688Z,56.17
2023-02-22T12:33:14.197Z,53.92
2023-02-22T12:35:49.054Z,56.40
2023-02-22T12:38:37.155Z,55.05
2023-02-22T12:41:18.582Z,55.47
2023-02-22T12:43:54.571Z,52.90
2023-02-22T12:46:37.194Z,54.95
2023-02-22T12:49:31.849Z,48.10
2023-02-22T12:52:24.924Z,49.47
2023-02-22T12:55:16.550Z,45.58
2023-02-22T12:58:10.179Z,47.95
2023-02-22T13:00:46.848Z,46.20
2023-02-22T13:03:27.406Z,45.40
2023-02-22T13:06:06.858Z,43.20
2023-02-22T13:08:49.627Z,43.58
2023-02-22T13:11:42.044Z,41.40
2023-02-22T13:14:27.820Z,40.95
2023-02-22T13:17:02.039Z,45.67
2023-02-22T13:19:34.765Z,42.83
2023-02-22T13:22:21.038Z,45.20
2023-02-22T13:25:09.173Z,43.70
2023-02-22T13:27:50.164Z,42.20
2023-02-22T13:30:21.772Z,38.45
2023-02-22T13:33:11.105Z,38.72
2023-02-22T13:36:07.112Z,38.10
2023-02-22T13:39:00.766Z,39.53
2023-02-22T13:42:05.891Z,36.45
2023-02-22T13:44:33.129Z,37.70
2023-02-22T13:47:14.983Z,38.88
2023-02-22T13:50:22.989Z,36.28
2023-02-22T13:52:52.114Z,37.22
2023-02-22T13:55:27.155Z,37.95
2023-02-22T13:58:06.093Z,38.13
2023-02-22T14:00:52.944Z,33.80
2023-02-22T14:03:24.028Z,33.78
2023-02-22T14:05:52.449Z,35.92
2023-02-22T14:08:19.303Z,35.63
2023-02-22T14:10:55.073Z,32.50
2023-02-22T14:13:29.131Z,33.60
2023-02-22T14:16:07.697Z,30.80
2023-02-22T14:18:49.325Z,30.70
2023-02-22T14:21:20.978Z,28.77
2023-02-22T14:23:52.722Z,30.17
2023-02-22T14:26:37.260Z,30.08
2023-02-22T14:29:07.514Z,30.15
2023-02-22T14:32:02.128Z,28.95
2023-02-22T14:34:46.366Z,31.10
2023-02-22T14:37:17.951Z,27.10
2023-02-22T14:40:02.098Z,26.10
2023-02-22T14:42:34.378Z,26.90
2023-02-22T14:45:24.845Z,29.70
2023-02-22T14:48:25.428Z,26.75
2023-02-22T14:51:03.709Z,26.42
2023-02-22T14:53:36.759Z,25.58
2023-02-22T14:56:14.424Z,25.80
2023-02-22T14:58:55.633Z,26.80
2023-02-22T15:01:47.470Z,23.02
2023-02-22T15:04:25.753Z,24.25
2023-02-22T15:06:54.503Z,24.00
2023-02-22T15:09:28.760Z,25.25
2023-02-22T15:12:05.357Z,20.73
2023-02-22T15:14:41.747Z,21.50
2023-02-22T15:17:22.833Z,19.98
2023-02-22T15:19:51.120Z,21.65
2023-02-22T15:22:21.860Z,20.65
2023-02-22T15:25:02.704Z,19.77
2023-02-22T15:27:29.940Z,20.52
2023-02-22T15:30:04.820Z,18.55
2023-02-22T15:32:50.143Z,20.70
2023-02-22T15:35:28.575Z,17.08
2023-02-22T15:38:06.082Z,21.25
2023-02-22T15:40:34.216Z,18.70
2023-02-22T15:43:04.502Z,22.45
2023-02-22T15:45:34.707Z,20.17
2023-02-22T15:48:01.661Z,21.20
2023-02-22T15:50:33.253Z,19.25
2023-02-22T15:53:23.206Z,17.75
2023-02-22T15:55:59.761Z,23.05
2023-02-22T15:58:30.029Z,22.10
2023-02-22T16:01:14.061Z,19.33
2023-02-22T16:03:48.155Z,20.23
2023-02-22T16:06:35.740Z,21.23
2023-02-22T16:09:14.354Z,18.70
2023-02-22T16:11:44.256Z,17.58
2023-02-22T16:14:40.083Z,19.63
2023-02-22T16:17:25.676Z,16.65
2023-02-22T16:19:53.510Z,18.63
2023-02-22T16:22:34.987Z,18.92
2023-02-22T16:25:21.557Z,19.15
2023-02-22T16:27:48.527Z,19.13
2023-02-22T16:30:24.354Z,19.67
2023-02-22T16:32:54.482Z,18.67
2023-02-22T16:35:22.058Z,23.33
2023-02-22T16:37:51.296Z,22.67
2023-02-22T16:40:23.344Z,27.73
2023-02-22T16:42:51.592Z,27.63
2023-02-22T16:45:19.905Z,26.13
2023-02-22T16:47:46.846Z,23.80
2023-02-22T16:50:16.741Z,20.10
2023-02-22T16:52:43.652Z,22.27
2023-02-22T16:55:14.060Z,22.83
2023-02-22T16:57:42.558Z,23.50
2023-02-22T17:00:16.159Z,24.67
2023-02-22T17:02:44.949Z,22.30
2023-02-22T17:05:16.213Z,23.20
2023-02-22T17:07:43.474Z,26.45
2023-02-22T17:10:17.785Z,26.35
2023-02-22T17:12:49.809Z,27.42
2023-02-22T17:15:24.732Z,26.90
2023-02-22T17:17:52.940Z,23.38
2023-02-22T17:20:30.024Z,27.48
2023-02-22T17:22:59.032Z,27.95
2023-02-22T17:25:31.797Z,27.77
2023-02-22T17:27:58.758Z,33.67
2023-02-22T17:30:26.291Z,30.50
2023-02-22T17:32:56.053Z,30.17
2023-02-22T17:37:53.766Z,35.30
2023-02-22T17:40:20.700Z,26.98
2023-02-22T17:42:47.709Z,28.90
2023-02-22T17:45:14.572Z,35.97
2023-02-22T17:47:43.204Z,33.60
2023-02-22T17:50:11.573Z,38.88
2023-02-22T17:52:38.901Z,40.05
2023-02-22T17:55:06.567Z,38.75
2023-02-22T17:57:33.927Z,37.40
2023-02-22T18:00:12.202Z,37.70
2023-02-22T18:02:43.390Z,40.25
2023-02-22T18:05:16.196Z,43.33
2023-02-22T18:07:44.201Z,47.40
2023-02-22T18:10:11.948Z,44.53
2023-02-22T18:12:39.984Z,45.85
2023-02-22T18:15:08.950Z,47.00
2023-02-22T18:17:37.712Z,45.67
2023-02-22T18:20:11.660Z,46.05
2023-02-22T18:22:42.665Z,45.88
2023-02-22T18:25:11.539Z,46.10
2023-02-22T18:27:38.380Z,46.20
2023-02-22T18:30:06.258Z,49.72
2023-02-22T18:32:33.593Z,48.17
2023-02-22T18:35:01.000Z,42.88
2023-02-22T18:37:30.726Z,44.00
2023-02-22T18:42:27.236Z,43.10
2023-02-22T18:44:55.883Z,50.25
2023-02-22T18:47:22.856Z,43.17
2023-02-22T18:49:49.675Z,43.22
2023-02-22T18:52:16.520Z,45.72
2023-02-22T18:54:43.431Z,45.13
2023-02-22T18:57:12.857Z,45.55
2023-02-22T18:59:40.610Z,42.25
2023-02-22T19:02:14.386Z,44.55
2023-02-22T19:04:44.027Z,41.25
2023-02-22T19:07:17.584Z,40.65
2023-02-22T19:09:44.857Z,42.35
2023-02-22T19:12:11.888Z,46.38
2023-02-22T19:14:38.838Z,41.78
2023-02-22T19:17:07.341Z,42.25
2023-02-22T19:19:34.594Z,47.05
2023-02-22T19:22:01.746Z,45.85
2023-02-22T19:24:28.725Z,47.15
2023-02-22T19:26:59.773Z,44.90
2023-02-22T19:29:26.925Z,44.10
2023-02-22T19:31:54.073Z,43.67
2023-02-22T19:34:22.057Z,46.70
2023-02-22T19:36:49.563Z,44.78
2023-02-22T19:39:19.001Z,48.40
2023-02-22T19:41:46.210Z,43.30
2023-02-22T19:44:13.377Z,46.72
2023-02-22T19:46:40.359Z,43.25
2023-02-22T19:49:07.656Z,42.47
2023-02-22T19:51:34.786Z,45.05
2023-02-22T19:54:04.630Z,46.25
2023-02-22T19:59:02.427Z,43.72
2023-02-22T20:01:32.922Z,43.38
2023-02-22T20:04:12.257Z,46.40
2023-02-22T20:06:43.984Z,47.60
2023-02-22T20:09:19.572Z,48.70
2023-02-22T20:11:47.731Z,47.47
2023-02-22T20:14:23.336Z,45.10
2023-02-22T20:16:55.064Z,45.15
2023-02-22T20:19:22.643Z,49.65
2023-02-22T20:21:50.278Z,46.97
2023-02-22T20:24:18.458Z,50.55
2023-02-22T20:26:46.613Z,46.90
2023-02-22T20:29:14.527Z,44.50
2023-02-22T20:31:43.312Z,44.03
2023-02-22T20:34:11.480Z,49.17
2023-02-22T20:36:40.218Z,51.42
2023-02-22T20:39:13.574Z,50.45
2023-02-22T20:41:42.884Z,53.13
2023-02-22T20:44:13.615Z,53.60
2023-02-22T20:46:41.141Z,50.55
2023-02-22T20:49:11.077Z,53.38
2023-02-22T20:51:42.010Z,48.72
2023-02-22T20:54:12.061Z,48.00
2023-02-22T20:56:43.793Z,51.25
2023-02-22T20:59:16.512Z,51.22
2023-02-22T21:01:44.368Z,54.65
2023-02-22T21:04:11.518Z,55.90
2023-02-22T21:06:39.665Z,53.88
2023-02-22T21:09:08.907Z,55.35
2023-02-22T21:11:36.041Z,56.75
2023-02-22T21:14:03.741Z,56.70
2023-02-22T21:16:36.334Z,58.80
2023-02-22T21:19:05.805Z,59.35
2023-02-22T21:21:33.106Z,55.17
2023-02-22T21:24:01.758Z,57.83
2023-02-22T21:26:32.307Z,57.20
2023-02-22T21:29:05.025Z,60.33
2023-02-22T21:31:33.353Z,52.78
2023-02-22T21:34:00.393Z,56.67
2023-02-22T21:36:28.558Z,61.05
2023-02-22T21:38:58.179Z,57.17
2023-02-22T21:41:27.865Z,56.35
2023-02-22T21:46:23.974Z,57.72
2023-02-22T21:48:51.124Z,62.85
2023-02-22T21:51:25.411Z,60.35
2023-02-22T21:56:41.999Z,71.32
2023-02-22T21:59:15.742Z,74.90
2023-02-22T22:01:49.745Z,75.82
2023-02-22T22:04:21.731Z,71.28
2023-02-22T22:06:51.831Z,74.88
2023-02-22T22:09:20.041Z,73.70
2023-02-22T22:11:46.827Z,80.30
2023-02-22T22:14:13.843Z,74.32
2023-02-22T22:16:40.712Z,76.32
2023-02-22T22:19:08.253Z,77.68
2023-02-22T22:21:35.115Z,75.95
2023-02-22T22:24:03.901Z,75.47
2023-02-22T22:26:30.823Z,69.00
2023-02-22T22:28:58.922Z,67.65
2023-02-22T22:31:27.689Z,77.72
2023-02-22T22:33:56.585Z,74.00
2023-02-22T22:36:27.034Z,82.45
2023-02-22T22:38:57.351Z,79.53
2023-02-22T22:41:27.894Z,82.13
2023-02-22T22:43:55.158Z,79.82
2023-02-22T22:46:22.184Z,71.13
2023-02-22T22:48:49.234Z,71.82
2023-02-22T22:51:20.034Z,68.97
2023-02-22T22:53:49.040Z,74.18
2023-02-22T22:56:26.011Z,71.47
2023-02-22T22:58:55.180Z,72.85
2023-02-22T23:01:26.980Z,69.05
2023-02-22T23:03:56.619Z,70.47
2023-02-22T23:06:27.712Z,64.05
2023-02-22T23:09:11.758Z,67.50
2023-02-22T23:11:50.536Z,65.60
2023-02-22T23:14:27.005Z,69.22
2023-02-22T23:17:03.220Z,66.97
2023-02-22T23:19:31.889Z,70.05
2023-02-22T23:21:59.359Z,68.20
2023-02-22T23:24:27.519Z,70.43
2023-02-22T23:26:59.871Z,67.90
2023-02-22T23:29:28.696Z,65.90
2023-02-22T23:31:56.076Z,66.43
2023-02-22T23:34:23.533Z,70.82
2023-02-22T23:36:54.155Z,71.22
2023-02-22T23:39:22.992Z,68.53
2023-02-22T23:41:51.161Z,76.72
2023-02-22T23:44:18.517Z,69.22
2023-02-22T23:46:48.569Z,71.63
2023-02-22T23:49:20.523Z,66.03
2023-02-22T23:51:48.518Z,71.20
2023-02-22T23:54:19.269Z,70.25
2023-02-22T23:56:56.436Z,68.40
2023-02-22T23:59:25.397Z,63.35
